Terminal Aerodrome Forecast
Issued by NWS Austin/San Antonio, TX

Home | Current Version | Previous Version | Text Only | Print | Product List | Glossary On
Versions: 1 2 3 4 5 6 7 8 9 10 11 12 13 14 15 16 17
000
FTUS44 KEWX 191758
TAFDRT
TAF
KDRT 191758Z 1918/2018 14010KT P6SM SCT025 BKN035
     FM192000 30005KT P6SM SCT030 BKN050
     FM200100 12005KT P6SM -SHRA BKN040 OVC100
      TEMPO 2001/2004 5SM -TSRA BKN040CB
     FM200500 32007KT P6SM OVC050
     FM201300 33009KT P6SM SCT100=

USA.gov is the U.S. government's official web portal to all federal, state and local government web resources and services.